Terminal Aerodrome Forecast
Issued by NWS Portland, OR

Home | Current Version | Previous Version | Text Only | Print | Product List | Glossary On
Versions: 1 2 3 4 5 6 7 8 9 10 11 12
000
FTUS46 KPQR 251736
TAFTTD
TAF
KTTD 251736Z 2518/2618 29004KT P6SM SCT250
     FM260600 00000KT P6SM SCT250
     FM261200 00000KT P6SM OVC011=

USA.gov is the U.S. government's official web portal to all federal, state and local government web resources and services.